Time;durP1;ratioP1;P1;durP2;ratioP2;P2;SDS_P1;SDS_P2;PMS_P1;PMS_P2;Temp;Humidity;BMP_temperature;BMP_pressure;BME280_temperature;BME280_humidity;BME280_pressure;Samples;Min_cycle;Max_cycle;Signal;HPM_P1;HPM_P2
2021/11/12 00:13:06;;;;;;;54.50;31.42;;;4.60;85.60;;;2.53;99.65;96533.09;5009921;28;20072;-69
2021/11/12 00:15:34;;;;;;;54.15;33.05;;;4.70;85.60;;;2.51;99.94;96535.03;5009739;28;20124;-69
2021/11/12 00:18:01;;;;;;;59.75;34.63;;;4.70;85.50;;;2.55;99.89;96538.19;5009138;28;20033;-69
2021/11/12 00:20:27;;;;;;;61.85;34.88;;;4.70;85.50;;;2.57;99.60;96529.31;5008945;28;20034;-68
2021/11/12 00:22:53;;;;;;;59.17;35.47;;;4.70;85.70;;;2.55;100.00;96525.19;5009623;28;20050;-69
2021/11/12 00:25:19;;;;;;;68.10;33.70;;;4.70;85.60;;;2.57;100.00;96528.47;5008493;28;20084;-68
2021/11/12 00:27:45;;;;;;;62.22;32.75;;;4.70;85.60;;;2.57;99.81;96525.88;5008585;28;20394;-69
2021/11/12 00:30:29;;;;;;;81.22;35.83;;;4.70;85.60;;;2.58;99.92;96519.72;4993254;28;20030;-69
2021/11/12 00:33:06;;;;;;;64.07;35.83;;;4.70;85.50;;;2.56;100.00;96517.28;5009722;28;20092;-69
2021/11/12 00:35:37;;;;;;;55.47;34.42;;;4.70;85.60;;;2.57;100.00;96518.09;4995071;28;20400;-69
2021/11/12 00:38:14;;;;;;;95.18;34.28;;;4.70;85.70;;;2.58;99.79;96517.97;4993476;28;20034;-69
2021/11/12 00:41:01;;;;;;;62.38;32.70;;;4.70;85.50;;;2.60;99.95;96504.84;5009449;28;20528;-69
2021/11/12 00:43:31;;;;;;;55.75;32.72;;;4.70;85.70;;;2.61;100.00;96514.28;4995591;28;20045;-69
2021/11/12 00:46:10;;;;;;;86.53;34.90;;;4.70;85.70;;;2.58;100.00;96519.72;5009054;28;20030;-69
2021/11/12 00:48:52;;;;;;;94.63;33.10;;;4.70;85.70;;;2.60;100.00;96512.63;4977295;28;20039;-69
2021/11/12 00:51:23;;;;;;;64.55;35.72;;;4.70;85.70;;;2.60;100.00;96512.63;5009311;28;20030;-68
2021/11/12 00:56:23;;;;;;;59.97;32.90;;;4.70;85.60;;;2.60;100.00;96510.03;5009470;28;20054;-69
2021/11/12 00:58:49;;;;;;;77.55;32.78;;;4.70;85.70;;;2.57;99.89;96518.91;5008477;28;20046;-69
2021/11/12 01:01:14;;;;;;;75.93;36.50;;;4.60;85.80;;;2.56;100.00;96516.44;4992435;28;20041;-69
2021/11/12 01:03:40;;;;;;;66.22;36.78;;;4.60;85.80;;;2.53;100.00;96521.91;5009063;28;20045;-68
2021/11/12 01:06:06;;;;;;;77.15;36.72;;;4.60;86.00;;;2.52;100.00;96523.69;5009337;28;20116;-69
2021/11/12 01:08:32;;;;;;;117.10;35.00;;;4.60;86.00;;;2.51;100.00;96518.63;4976256;28;20038;-69
2021/11/12 01:10:58;;;;;;;58.70;33.88;;;4.50;85.50;;;2.45;99.95;96515.56;4992179;28;20038;-69
2021/11/12 01:13:24;;;;;;;94.82;34.70;;;4.50;85.80;;;2.46;99.78;96509.41;5008812;28;20041;-69
2021/11/12 01:15:50;;;;;;;58.30;33.42;;;4.50;85.60;;;2.40;100.00;96507.34;5008492;28;20509;-70
2021/11/12 01:18:16;;;;;;;70.25;35.08;;;4.50;86.00;;;2.42;99.84;96505.44;4992550;28;20038;-69
2021/11/12 01:20:42;;;;;;;54.97;34.83;;;4.50;85.90;;;2.45;100.00;96512.97;4983809;28;20439;-69
2021/11/12 01:23:08;;;;;;;65.80;35.55;;;4.60;85.70;;;2.44;99.89;96507.91;4993504;28;20036;-68
2021/11/12 01:25:34;;;;;;;76.93;32.97;;;4.50;85.70;;;2.43;100.00;96506.25;5007876;28;20031;-69
2021/11/12 01:27:59;;;;;;;54.78;32.80;;;4.60;85.60;;;2.41;100.00;96502.97;5009652;28;20390;-69
2021/11/12 01:30:25;;;;;;;60.85;31.40;;;4.50;85.60;;;2.40;100.00;96498.72;5008634;28;20538;-69
2021/11/12 01:32:51;;;;;;;69.63;34.25;;;4.50;85.70;;;2.39;100.00;96503.09;4992065;28;20488;-69
2021/11/12 01:35:19;;;;;;;64.72;31.20;;;4.40;85.80;;;2.39;100.00;96500.50;4992519;28;20056;-69
2021/11/12 01:37:45;;;;;;;50.95;31.27;;;4.50;85.70;;;2.41;99.95;96508.97;5007411;28;20117;-68
2021/11/12 01:40:23;;;;;;;67.78;32.97;;;4.50;85.70;;;2.42;100.00;96508.03;4992645;28;20018;-69
2021/11/12 01:43:12;;;;;;;57.90;29.98;;;4.50;85.70;;;2.42;100.00;96515.81;4993189;28;20022;-69
2021/11/12 01:54:09;;;;;;;79.80;30.33;;;4.40;85.70;;;2.33;99.67;96497.59;4950782;28;20045;-64
2021/11/12 01:59:20;;;;;;;50.65;31.98;;;4.50;85.70;;;2.30;99.94;96496.09;4979836;28;20062;-64
2021/11/12 02:01:52;;;;;;;110.55;30.33;;;4.40;85.50;;;2.28;99.80;96492.81;4966627;28;20034;-64
2021/11/12 02:04:24;;;;;;;92.00;31.80;;;4.30;85.30;;;2.22;99.94;96493.28;4970816;28;20035;-65
2021/11/12 02:06:50;;;;;;;59.35;30.30;;;4.30;85.50;;;2.21;99.59;96488.22;4979242;28;20154;-64
2021/11/12 02:09:19;;;;;;;46.35;30.73;;;4.20;85.60;;;2.21;99.74;96480.44;4993711;28;20526;-64
2021/11/12 02:11:46;;;;;;;78.55;31.17;;;4.40;85.70;;;2.21;99.76;96485.63;4985605;28;20092;-64
2021/11/12 02:14:14;;;;;;;77.93;30.23;;;4.20;85.30;;;2.17;99.52;96479.06;4939952;28;20616;-64
2021/11/12 02:16:47;;;;;;;81.45;31.25;;;4.20;85.30;;;2.15;99.83;96479.19;4968163;28;20093;-64
2021/11/12 02:19:14;;;;;;;52.38;27.85;;;4.20;85.30;;;2.18;99.77;96481.53;4954003;28;20157;-64
2021/11/12 02:21:55;;;;;;;45.60;29.85;;;4.30;85.40;;;2.18;99.34;96476.34;5003236;28;20038;-64
2021/11/12 02:24:21;;;;;;;49.75;28.25;;;4.30;85.10;;;2.15;99.72;96474.00;4973379;28;20053;-64
2021/11/12 02:26:55;;;;;;;43.60;27.23;;;4.20;84.80;;;2.16;99.40;96467.84;4955614;28;20076;-65
2021/11/12 02:29:21;;;;;;;74.50;27.20;;;4.30;84.90;;;2.13;99.59;96458.56;4986998;28;20042;-64
2021/11/12 02:31:47;;;;;;;42.63;27.23;;;4.20;84.80;;;2.12;99.32;96467.31;4970343;28;20030;-68
2021/11/12 02:34:14;;;;;;;45.15;27.42;;;4.30;84.80;;;2.13;99.62;96462.94;4987002;28;20850;-64
2021/11/12 02:36:40;;;;;;;53.30;26.38;;;4.30;84.90;;;2.09;99.15;96451.16;4992284;28;20042;-65
2021/11/12 02:39:09;;;;;;;43.13;25.70;;;4.20;84.50;;;2.02;99.07;96450.00;4971259;28;20038;-64
2021/11/12 02:41:35;;;;;;;43.80;28.10;;;4.10;85.00;;;2.03;98.95;96446.47;4980940;28;20038;-65
2021/11/12 02:44:01;;;;;;;39.55;25.92;;;4.10;85.10;;;2.04;99.51;96440.34;4962102;28;20039;-64
2021/11/12 02:46:27;;;;;;;62.95;28.67;;;4.10;85.00;;;2.03;98.83;96441.28;4980798;28;20165;-64
2021/11/12 02:48:53;;;;;;;46.13;27.52;;;4.10;85.00;;;2.04;98.95;96442.94;5002989;28;20038;-64
2021/11/12 02:51:24;;;;;;;118.68;28.17;;;4.20;85.00;;;2.04;98.97;96440.34;4978939;28;20509;-64
2021/11/12 02:53:50;;;;;;;47.83;27.67;;;4.10;85.20;;;2.03;99.45;96436.91;4972435;28;20109;-64
2021/11/12 02:56:32;;;;;;;58.00;28.77;;;4.20;85.10;;;2.04;99.15;96433.41;4974864;28;20115;-64
2021/11/12 02:59:06;;;;;;;48.33;28.65;;;4.10;85.20;;;2.05;99.33;96429.03;4975991;28;20081;-64
2021/11/12 03:01:34;;;;;;;43.95;27.83;;;4.20;85.50;;;2.06;99.51;96426.31;4970748;28;20062;-63
2021/11/12 03:04:00;;;;;;;42.72;27.25;;;4.20;85.30;;;2.06;99.72;96418.53;4982968;28;20034;-64
2021/11/12 03:06:26;;;;;;;53.67;28.33;;;4.10;85.20;;;2.08;99.53;96423.56;4970484;28;20039;-64
2021/11/12 03:08:52;;;;;;;74.03;27.67;;;4.20;85.10;;;2.06;99.61;96425.47;4971525;28;20066;-64
2021/11/12 03:11:18;;;;;;;46.80;28.65;;;4.20;85.00;;;2.06;99.35;96430.66;4966949;28;20034;-64
2021/11/12 03:13:47;;;;;;;74.35;28.77;;;4.20;85.10;;;2.05;99.25;96437.63;5005741;28;20472;-64
2021/11/12 03:16:14;;;;;;;42.88;29.60;;;4.20;85.00;;;2.07;99.24;96434.91;5006389;28;20424;-64
2021/11/12 03:18:40;;;;;;;73.00;28.17;;;4.20;85.10;;;2.06;99.69;96421.13;4998552;28;20026;-64
2021/11/12 03:21:07;;;;;;;41.83;25.90;;;4.20;85.20;;;2.04;99.67;96427.38;4973496;28;20038;-64
2021/11/12 03:23:41;;;;;;;59.08;28.17;;;4.20;85.40;;;2.03;99.83;96425.72;4978350;28;20125;-64
2021/11/12 03:29:05;;;;;;;63.20;29.00;;;4.10;85.60;;;2.00;99.92;96429.38;4974117;28;20038;-67
2021/11/12 03:46:58;;;;;;;78.72;29.00;;;4.10;85.50;;;2.01;99.82;96414.66;4978914;28;20045;-64
2021/11/12 03:56:38;;;;;;;67.40;27.25;;;4.10;85.20;;;1.95;99.77;96422.94;4972605;28;20069;-67
2021/11/12 04:02:12;;;;;;;44.35;23.80;;;4.10;85.40;;;1.93;99.85;96423.06;4988102;28;20588;-65
2021/11/12 04:18:15;;;;;;;62.45;31.25;;;4.20;85.70;;;1.99;99.84;96404.41;4981256;28;20126;-65
2021/11/12 05:44:24;;;;;;;32.33;17.27;;;3.70;85.10;;;1.66;98.80;96410.63;4974564;28;20410;-67
2021/11/12 05:55:05;;;;;;;32.47;20.58;;;3.80;84.90;;;1.67;99.39;96420.06;4974463;28;20092;-66
2021/11/12 05:55:09;;;;;;;43.22;19.27;;;3.80;85.20;;;1.66;99.04;96418.41;4958351;28;20042;-67
2021/11/12 05:57:36;;;;;;;60.05;17.17;;;3.90;84.80;;;1.66;99.26;96422.78;4972595;28;20065;-66
2021/11/12 06:00:06;;;;;;;33.75;17.02;;;3.80;84.70;;;1.64;99.36;96412.53;4970909;28;20045;-67
2021/11/12 06:02:33;;;;;;;50.72;18.15;;;3.80;84.70;;;1.64;99.25;96416.88;4956366;28;20096;-67
2021/11/12 06:04:58;;;;;;;31.58;20.40;;;3.80;84.70;;;1.59;98.76;96412.09;4972109;28;20049;-67
2021/11/12 06:07:25;;;;;;;41.90;22.13;;;3.80;84.70;;;1.59;98.80;96406.91;4956169;28;20062;-67
2021/11/12 06:09:51;;;;;;;57.00;16.27;;;3.70;84.60;;;1.56;98.62;96416.69;4939537;28;20176;-67
2021/11/12 06:12:17;;;;;;;24.15;16.17;;;3.60;84.60;;;1.53;98.38;96407.38;4971922;28;20502;-67
2021/11/12 06:14:42;;;;;;;61.60;16.42;;;3.60;85.00;;;1.52;98.63;96403.16;4988185;28;20042;-66
2021/11/12 06:17:08;;;;;;;67.18;16.45;;;3.60;85.10;;;1.51;98.90;96414.47;4989608;28;20097;-67
2021/11/12 06:19:34;;;;;;;50.90;16.58;;;3.50;85.00;;;1.49;98.92;96417.19;4987845;28;20467;-67
2021/11/12 06:22:00;;;;;;;63.10;16.73;;;3.60;85.20;;;1.49;99.21;96409.41;5004059;28;20444;-67
2021/11/12 06:24:26;;;;;;;59.72;16.85;;;3.60;85.40;;;1.50;99.33;96408.47;5001481;28;20035;-67
2021/11/12 06:26:53;;;;;;;54.22;16.33;;;3.60;85.40;;;1.44;99.58;96410.75;4988672;28;20054;-67
2021/11/12 06:29:19;;;;;;;46.42;17.35;;;3.50;85.50;;;1.42;99.64;96416.06;4956129;28;20198;-67
2021/11/12 06:31:44;;;;;;;60.33;17.15;;;3.40;85.70;;;1.42;99.30;96415.22;4972345;28;20382;-67
2021/11/12 06:34:10;;;;;;;50.92;15.95;;;3.50;85.70;;;1.39;99.26;96420.66;4972427;28;20492;-67
2021/11/12 06:36:36;;;;;;;38.78;17.50;;;3.40;85.80;;;1.37;99.52;96412.19;4988194;28;20430;-66
2021/11/12 06:39:04;;;;;;;24.48;17.58;;;3.50;85.80;;;1.41;99.87;96405.81;4971835;28;20498;-66
2021/11/12 06:50:43;;;;;;;26.90;17.10;;;3.60;85.70;;;1.47;99.70;96416.50;4997439;28;20041;-67
2021/11/12 06:52:39;;;;;;;50.08;17.05;;;3.70;85.70;;;1.48;99.83;96410.34;5001700;28;20141;-66
2021/11/12 06:55:05;;;;;;;28.70;16.85;;;3.60;85.40;;;1.50;99.86;96410.22;4990614;28;20085;-66
2021/11/12 06:57:31;;;;;;;26.13;17.10;;;3.70;85.70;;;1.53;99.71;96407.38;5007445;28;20057;-66
2021/11/12 06:59:57;;;;;;;58.42;17.45;;;3.70;85.60;;;1.53;100.00;96402.19;5006739;28;20537;-66
2021/11/12 07:02:24;;;;;;;60.78;18.25;;;3.70;85.50;;;1.55;100.00;96405.47;4990986;28;20102;-67
2021/11/12 07:04:50;;;;;;;30.48;18.20;;;3.70;85.40;;;1.58;100.00;96410.41;5007170;28;20034;-67
2021/11/12 07:07:16;;;;;;;43.13;17.58;;;3.80;85.60;;;1.62;100.00;96409.25;4974746;28;20490;-67
2021/11/12 07:09:42;;;;;;;41.03;18.95;;;3.90;85.60;;;1.65;100.00;96411.56;4957691;28;20552;-67
2021/11/12 07:12:09;;;;;;;44.70;19.70;;;3.90;85.60;;;1.69;100.00;96404.38;4958840;28;20502;-66
2021/11/12 07:14:35;;;;;;;27.27;17.67;;;3.90;85.60;;;1.71;100.00;96411.06;4990720;28;20049;-66
2021/11/12 07:17:02;;;;;;;31.05;18.38;;;4.00;85.40;;;1.73;100.00;96414.34;4974739;28;20090;-66
2021/11/12 07:19:27;;;;;;;63.90;18.17;;;4.00;85.50;;;1.75;100.00;96417.63;4990219;28;20125;-66
2021/11/12 07:21:56;;;;;;;48.30;17.73;;;4.00;85.40;;;1.75;100.00;96416.81;4990676;28;20030;-67
2021/11/12 07:24:22;;;;;;;44.70;18.65;;;4.00;85.50;;;1.77;100.00;96420.09;5006636;28;20035;-67
2021/11/12 07:26:48;;;;;;;36.03;18.25;;;4.10;85.70;;;1.81;100.00;96417.16;5007137;28;20537;-66
2021/11/12 07:29:13;;;;;;;43.08;18.42;;;4.10;85.60;;;1.82;100.00;96416.19;5006737;28;20125;-67
2021/11/12 07:31:41;;;;;;;29.58;16.95;;;4.10;85.40;;;1.84;100.00;96401.34;4985419;28;20034;-67
2021/11/12 07:34:06;;;;;;;25.02;16.70;;;4.10;85.40;;;1.87;100.00;96396.84;4989998;28;20093;-67
2021/11/12 07:36:46;;;;;;;86.32;16.77;;;4.10;85.30;;;1.86;100.00;96387.41;4958390;28;20690;-66
2021/11/12 07:39:36;;;;;;;54.00;18.27;;;4.10;85.00;;;1.88;100.00;96377.72;4962268;28;20588;-68
2021/11/12 07:49:37;;;;;;;35.08;19.10;;;4.10;85.20;;;1.86;100.00;96392.59;4992129;28;20061;-66
2021/11/12 07:52:05;;;;;;;40.17;21.23;;;4.10;85.30;;;1.89;100.00;96394.94;4976986;28;20030;-66
2021/11/12 07:54:34;;;;;;;97.25;21.17;;;4.10;85.70;;;1.92;100.00;96386.88;5009266;28;20030;-67
2021/11/12 07:57:00;;;;;;;45.92;22.08;;;4.20;85.30;;;1.96;100.00;96388.28;4958808;28;20084;-66
2021/11/12 07:59:28;;;;;;;32.47;19.58;;;4.20;85.40;;;1.99;100.00;96391.44;4974196;28;20042;-66
2021/11/12 08:01:54;;;;;;;37.28;19.10;;;4.20;85.30;;;2.04;100.00;96398.84;4973924;28;20158;-66
2021/11/12 08:04:20;;;;;;;34.25;19.55;;;4.20;85.10;;;2.05;100.00;96403.09;4973984;28;20041;-67
2021/11/12 08:06:49;;;;;;;37.47;20.02;;;4.20;85.40;;;2.05;100.00;96400.50;4958059;28;20058;-67
2021/11/12 08:09:17;;;;;;;31.83;20.30;;;4.20;85.30;;;2.09;100.00;96394.09;4957820;28;20038;-67
2021/11/12 08:11:48;;;;;;;39.38;19.10;;;4.40;85.30;;;2.13;100.00;96395.47;4989135;28;20058;-67
2021/11/12 08:24:44;;;;;;;37.83;20.52;;;4.40;84.90;;;2.17;100.00;96386.47;4989638;28;20354;-66
2021/11/12 08:27:37;;;;;;;44.00;20.65;;;4.40;85.00;;;2.18;100.00;96388.09;4976318;28;20038;-67
2021/11/12 08:30:25;;;;;;;38.10;20.55;;;4.40;84.80;;;2.21;100.00;96382.66;4961148;28;20510;-66
2021/11/12 08:37:50;;;;;;;41.70;20.23;;;4.60;84.60;;;2.32;100.00;96372.19;4989367;28;20461;-66
2021/11/12 08:43:13;;;;;;;70.53;20.10;;;4.60;84.40;;;2.38;100.00;96376.84;4992392;28;20041;-66
2021/11/12 08:46:00;;;;;;;35.25;21.95;;;4.60;84.40;;;2.44;100.00;96372.91;4989916;28;20061;-66
2021/11/12 08:48:38;;;;;;;35.50;20.85;;;4.70;84.40;;;2.51;100.00;96373.22;5000503;28;20050;-67
2021/11/12 08:51:07;;;;;;;44.63;19.90;;;4.90;84.50;;;2.55;100.00;96365.03;5008952;28;20033;-67
2021/11/12 08:53:33;;;;;;;32.38;20.27;;;4.90;84.40;;;2.60;100.00;96364.63;5008635;28;20053;-66
2021/11/12 08:55:59;;;;;;;46.65;20.67;;;4.90;84.30;;;2.65;100.00;96354.63;5008126;28;20034;-66
2021/11/12 08:58:25;;;;;;;32.85;19.80;;;5.00;83.90;;;2.69;100.00;96361.19;4988354;28;20132;-66
2021/11/12 09:00:51;;;;;;;30.25;19.17;;;5.10;83.60;;;2.74;100.00;96359.06;4989830;28;20030;-67
2021/11/12 09:03:18;;;;;;;32.25;20.23;;;5.10;83.60;;;2.80;100.00;96355.91;4988594;28;20532;-67
2021/11/12 09:05:44;;;;;;;33.10;19.58;;;5.10;83.70;;;2.82;100.00;96345.38;4988094;28;20047;-67
2021/11/12 09:08:09;;;;;;;34.08;19.30;;;5.10;83.70;;;2.84;99.69;96354.69;5004923;28;20042;-66
2021/11/12 09:10:35;;;;;;;33.13;19.40;;;5.20;83.50;;;2.85;99.72;96351.13;4988088;28;20034;-66
2021/11/12 09:13:19;;;;;;;28.83;19.55;;;5.10;83.60;;;2.90;99.83;96348.94;4974907;28;20045;-66
2021/11/12 09:15:54;;;;;;;28.52;19.27;;;5.20;83.60;;;2.92;99.66;96349.63;4988411;28;20030;-67
2021/11/12 09:18:22;;;;;;;33.70;20.38;;;5.30;83.40;;;2.96;99.63;96350.19;4988600;28;20041;-67
2021/11/12 09:20:51;;;;;;;42.72;20.52;;;5.30;83.50;;;3.00;99.94;96352.38;4972660;28;20133;-66
2021/11/12 09:23:17;;;;;;;29.30;19.38;;;5.30;83.60;;;3.06;99.91;96345.81;4973025;28;20193;-67
2021/11/12 09:25:43;;;;;;;53.72;20.50;;;5.40;83.40;;;3.08;99.27;96344.72;4969312;28;20141;-68
2021/11/12 09:28:11;;;;;;;30.67;19.60;;;5.40;83.30;;;3.12;99.58;96352.22;4999637;28;20045;-67
2021/11/12 09:30:37;;;;;;;28.77;19.38;;;5.50;83.50;;;3.16;99.41;96343.19;4991445;28;20125;-67
2021/11/12 09:33:04;;;;;;;33.30;19.83;;;5.50;83.50;;;3.18;99.17;96336.13;4991641;28;20103;-67
2021/11/12 09:35:30;;;;;;;34.47;20.70;;;5.60;83.00;;;3.22;99.47;96321.88;5007974;28;20061;-67
2021/11/12 09:37:56;;;;;;;30.83;19.48;;;5.60;83.10;;;3.27;99.81;96332.66;4991363;28;20089;-67
2021/11/12 09:40:21;;;;;;;36.55;20.13;;;5.70;83.20;;;3.31;99.42;96331.44;4991484;28;20037;-70
2021/11/12 09:42:51;;;;;;;28.45;18.00;;;5.60;83.30;;;3.31;99.29;96326.22;4990712;28;20039;-67
2021/11/12 09:45:17;;;;;;;34.60;18.40;;;5.60;83.00;;;3.34;99.36;96324.16;5003973;28;20105;-67
2021/11/12 09:47:43;;;;;;;27.85;19.80;;;5.70;82.90;;;3.38;99.21;96327.31;4920903;28;20176;-67
2021/11/12 09:50:16;;;;;;;26.67;19.25;;;5.70;82.90;;;3.40;99.06;96330.63;4977819;28;20068;-67
2021/11/12 09:52:42;;;;;;;30.40;19.33;;;5.70;82.90;;;3.43;98.79;96309.53;5003771;28;20034;-67
2021/11/12 09:55:09;;;;;;;29.08;20.48;;;5.70;82.80;;;3.44;98.64;96311.19;5004654;28;20057;-67
2021/11/12 09:57:34;;;;;;;40.20;19.80;;;5.70;82.90;;;3.49;99.25;96319.38;5005727;28;20513;-67
2021/11/12 10:00:04;;;;;;;24.95;18.00;;;5.80;83.10;;;3.49;98.91;96308.97;4991700;28;20081;-67
2021/11/12 10:02:31;;;;;;;27.92;19.48;;;5.80;83.00;;;3.52;99.14;96298.28;4976124;28;20043;-67
2021/11/12 10:04:57;;;;;;;24.08;18.42;;;5.80;82.90;;;3.57;98.91;96306.47;4997068;28;20042;-68
2021/11/12 10:07:23;;;;;;;21.35;17.00;;;5.90;83.00;;;3.61;99.43;96297.44;4975463;28;20441;-67
2021/11/12 10:10:14;;;;;;;24.23;17.42;;;6.00;83.00;;;3.67;99.00;96299.50;4991745;28;20100;-67
2021/11/12 10:12:45;;;;;;;;;;;6.00;82.60;;;3.67;98.48;96301.28;4992413;28;20046;-67
2021/11/12 10:15:18;;;;;;;25.05;17.20;;;6.10;82.50;;;3.67;98.49;96307.28;4992304;28;19921;-67
2021/11/12 10:17:48;;;;;;;23.52;16.83;;;6.00;82.60;;;3.73;98.85;96307.69;4975278;28;20117;-68
2021/11/12 10:20:22;;;;;;;25.13;17.85;;;6.10;82.50;;;3.75;98.33;96308.34;5007547;28;20034;-66
2021/11/12 10:22:49;;;;;;;22.52;18.10;;;6.10;82.50;;;3.79;98.47;96304.50;4990951;28;20038;-66
2021/11/12 10:25:15;;;;;;;50.63;17.77;;;6.20;82.20;;;3.81;98.45;96302.56;4974009;28;20133;-66
2021/11/12 10:27:51;;;;;;;28.50;17.92;;;6.10;82.30;;;3.77;97.78;96296.03;4999787;28;20043;-66
2021/11/12 10:30:23;;;;;;;24.65;17.15;;;5.90;82.30;;;3.79;97.93;96288.91;4987558;28;20485;-66
2021/11/12 10:32:49;;;;;;;20.63;16.45;;;6.00;82.60;;;3.81;97.74;96287.78;4995561;28;20038;-66
2021/11/12 10:35:20;;;;;;;22.15;17.30;;;6.10;82.50;;;3.84;98.27;96282.28;4995012;28;20104;-66
2021/11/12 10:37:46;;;;;;;23.65;17.17;;;6.10;82.50;;;3.89;98.33;96284.50;4989298;28;20073;-66
2021/11/12 10:40:22;;;;;;;31.55;17.13;;;6.20;82.50;;;3.89;97.77;96274.91;4959155;28;20109;-66
2021/11/12 10:42:50;;;;;;;41.83;18.75;;;6.20;82.30;;;3.92;98.14;96279.00;4956333;28;20046;-66
2021/11/12 10:45:23;;;;;;;28.25;17.08;;;6.20;82.20;;;3.90;97.87;96268.72;4987988;28;20037;-66
2021/11/12 10:48:03;;;;;;;42.85;19.08;;;6.20;82.20;;;3.91;98.01;96262.56;4987691;28;20078;-66
2021/11/12 10:50:32;;;;;;;40.03;17.87;;;6.10;82.30;;;3.92;98.02;96268.59;4957003;28;20065;-66
2021/11/12 10:53:00;;;;;;;25.35;18.15;;;6.20;82.30;;;3.96;98.00;96267.34;4959616;28;20804;-66
2021/11/12 10:55:26;;;;;;;33.85;17.20;;;6.20;82.30;;;3.97;98.21;96261.16;4991062;28;20122;-66
2021/11/12 10:58:00;;;;;;;28.25;18.50;;;6.30;82.30;;;3.97;97.60;96256.78;4990915;28;20040;-66
2021/11/12 11:00:30;;;;;;;21.45;16.73;;;6.20;82.40;;;4.02;98.34;96256.34;4990491;28;20030;-66
2021/11/12 11:03:07;;;;;;;21.42;14.95;;;6.40;82.20;;;4.06;98.11;96249.88;4991346;28;20041;-66
2021/11/12 11:05:41;;;;;;;21.10;15.95;;;6.40;82.10;;;4.06;97.36;96243.84;4991178;28;20522;-66
2021/11/12 11:08:19;;;;;;;22.05;17.70;;;6.40;82.00;;;4.12;97.45;96244.09;4992756;28;20129;-66
2021/11/12 11:10:50;;;;;;;21.30;16.60;;;6.50;81.90;;;4.16;98.00;96240.25;4974226;28;20065;-66
2021/11/12 11:13:18;;;;;;;20.38;15.57;;;6.50;81.80;;;4.20;96.90;96241.59;4975569;28;20128;-66
2021/11/12 11:15:52;;;;;;;29.38;17.25;;;6.60;81.30;;;4.25;97.12;96239.34;4958654;28;20042;-68
2021/11/12 11:18:29;;;;;;;21.10;17.48;;;6.60;81.50;;;4.27;96.87;96237.41;4959671;28;20498;-66
2021/11/12 11:21:02;;;;;;;28.70;21.77;;;6.60;81.40;;;4.32;97.42;96228.38;4960014;28;20038;-66
2021/11/12 11:23:51;;;;;;;22.85;20.25;;;6.60;81.50;;;4.35;97.59;96228.09;4991582;28;20038;-66
2021/11/12 11:26:26;;;;;;;32.97;25.35;;;6.70;81.80;;;4.39;97.93;96222.44;4963769;28;20041;-66
2021/11/12 11:28:54;;;;;;;25.00;18.80;;;6.70;82.30;;;4.42;96.98;96229.13;4979262;28;20030;-66
2021/11/12 11:31:21;;;;;;;35.90;19.17;;;6.70;81.70;;;4.42;97.42;96218.69;4978422;28;20030;-66
2021/11/12 11:33:50;;;;;;;24.40;19.20;;;6.70;81.70;;;4.45;97.47;96228.81;4974181;28;20058;-66
2021/11/12 11:36:19;;;;;;;26.20;19.98;;;6.70;81.60;;;4.48;97.43;96228.53;5006466;28;20030;-66
2021/11/12 11:38:45;;;;;;;31.08;20.50;;;6.80;81.60;;;4.49;96.98;96230.97;4990246;28;20173;-66
2021/11/12 11:41:13;;;;;;;29.23;20.23;;;6.80;81.80;;;4.49;96.79;96217.13;4971792;28;20121;-66
2021/11/12 11:43:40;;;;;;;29.50;21.50;;;6.70;81.70;;;4.47;97.22;96219.88;4954866;28;20395;-66
2021/11/12 11:46:15;;;;;;;29.63;19.45;;;6.70;81.90;;;4.45;97.11;96213.19;4956089;28;20121;-67
2021/11/12 11:48:43;;;;;;;25.45;20.55;;;6.70;81.70;;;4.42;96.90;96203.06;4959845;28;20030;-66
2021/11/12 11:51:09;;;;;;;26.02;19.88;;;6.70;81.80;;;4.42;96.64;96203.91;4958358;28;20026;-66
2021/11/12 11:53:44;;;;;;;24.58;19.15;;;6.70;81.90;;;4.43;97.23;96204.72;4958096;28;20031;-66
2021/11/12 11:56:26;;;;;;;39.80;18.02;;;6.70;81.80;;;4.43;96.92;96209.91;4958311;28;20038;-66
2021/11/12 11:59:20;;;;;;;43.00;19.98;;;6.70;81.50;;;4.45;96.83;96207.97;4989811;28;20437;-66
2021/11/12 12:01:53;;;;;;;27.73;16.20;;;6.70;81.60;;;4.44;96.80;96211.56;4973488;28;20034;-66
2021/11/12 12:04:19;;;;;;;20.17;16.92;;;6.70;81.40;;;4.41;97.01;96212.69;5005887;28;20073;-66
2021/11/12 12:07:04;;;;;;;21.85;17.45;;;6.60;81.40;;;4.42;96.57;96203.06;5006222;28;20138;-67
2021/11/12 12:09:49;;;;;;;21.17;16.85;;;6.60;81.50;;;4.41;96.23;96201.44;4990681;28;20061;-66
2021/11/12 12:12:30;;;;;;;20.73;16.33;;;6.60;81.20;;;4.41;96.50;96196.22;4990557;28;20185;-66
2021/11/12 12:14:57;;;;;;;30.88;17.50;;;6.60;81.30;;;4.40;95.93;96186.78;4991000;28;20034;-66
2021/11/12 12:17:24;;;;;;;22.77;17.88;;;6.60;81.30;;;4.40;96.68;96189.38;4957833;28;20075;-66
2021/11/12 12:20:00;;;;;;;21.92;18.02;;;6.60;81.50;;;4.40;95.91;96185.00;4972777;28;20056;-66
2021/11/12 13:23:11;;;;;;;35.33;23.27;;;6.40;82.40;;;4.24;97.17;96149.19;4970629;28;20170;-66
2021/11/12 13:25:53;;;;;;;35.45;25.35;;;6.40;82.50;;;4.26;96.79;96149.88;4982975;28;20070;-65
2021/11/12 13:28:23;;;;;;;42.67;26.40;;;6.40;82.70;;;4.26;97.22;96147.25;4996327;28;20117;-66
2021/11/12 13:30:58;;;;;;;35.63;24.80;;;6.50;82.50;;;4.28;96.77;96145.31;5000359;28;20409;-65
2021/11/12 13:33:37;;;;;;;40.88;27.60;;;6.50;82.60;;;4.27;96.58;96140.28;5008072;28;20455;-66
2021/11/12 13:36:23;;;;;;;39.67;25.33;;;6.50;82.60;;;4.27;97.48;96127.25;5009573;28;20049;-65
2021/11/12 13:39:01;;;;;;;39.53;27.60;;;6.40;82.60;;;4.28;97.85;96123.69;4992743;28;20449;-68
2021/11/12 13:41:29;;;;;;;38.10;27.90;;;6.50;82.80;;;4.26;97.38;96126.44;5004339;28;20457;-66
2021/11/12 13:44:29;;;;;;;40.83;27.38;;;6.50;82.80;;;4.24;97.08;96124.94;4988111;28;20041;-68
2021/11/12 13:47:00;;;;;;;46.72;28.02;;;6.40;82.60;;;4.20;97.04;96121.81;4965339;28;20039;-66
2021/11/12 13:49:37;;;;;;;39.70;29.73;;;6.40;82.90;;;4.23;97.65;96128.53;4954317;28;20027;-65
2021/11/12 13:52:18;;;;;;;45.10;27.08;;;6.40;83.00;;;4.22;97.83;96129.50;4953272;28;20367;-66
2021/11/12 13:55:13;;;;;;;42.05;28.42;;;6.40;83.00;;;4.21;97.81;96133.88;4937625;28;20031;-66
2021/11/12 13:57:45;;;;;;;48.35;25.70;;;6.40;83.20;;;4.19;97.80;96138.41;4956319;28;20358;-66
2021/11/12 14:00:11;;;;;;;37.03;25.60;;;6.30;83.20;;;4.18;97.58;96139.38;4953592;28;20031;-66
2021/11/12 14:02:54;;;;;;;32.50;21.35;;;6.40;83.10;;;4.18;97.49;96139.38;4951084;28;20050;-67
2021/11/12 14:05:21;;;;;;;30.33;21.92;;;6.30;82.70;;;4.15;96.47;96138.88;4989577;28;20046;-67
2021/11/12 14:07:49;;;;;;;30.10;22.65;;;6.20;82.50;;;4.14;97.49;96130.25;4972356;28;20035;-66
2021/11/12 14:10:15;;;;;;;29.45;20.50;;;6.30;82.40;;;4.12;96.43;96119.16;4940515;28;20057;-67
2021/11/12 14:12:55;;;;;;;28.80;20.63;;;6.30;82.30;;;4.14;96.61;96127.63;4972791;28;20410;-67
2021/11/12 14:15:34;;;;;;;28.00;19.90;;;6.30;82.30;;;4.12;96.76;96126.97;4956590;28;20032;-66
2021/11/12 14:35:09;;;;;;;19.90;16.05;;;6.20;82.20;;;4.13;96.23;96113.00;4988640;28;20038;-67
2021/11/12 14:38:27;;;;;;;19.95;16.05;;;6.20;82.20;;;4.12;96.46;96111.34;4974321;28;20041;-67
2021/11/12 14:40:48;;;;;;;22.60;17.05;;;6.20;82.20;;;4.15;96.53;96118.84;4951117;28;20106;-67
2021/11/12 14:43:41;;;;;;;25.42;16.35;;;6.30;82.20;;;4.13;96.09;96115.59;4969528;28;20550;-67
2021/11/12 14:48:55;;;;;;;27.45;17.90;;;6.20;82.50;;;4.09;96.26;96113.44;4972918;28;20038;-66
2021/11/12 14:51:25;;;;;;;28.67;19.95;;;6.20;82.40;;;4.10;96.99;96110.69;4957621;28;20038;-67
2021/11/12 14:53:53;;;;;;;25.42;17.77;;;6.20;82.80;;;4.08;96.32;96101.38;4956807;28;20026;-67
2021/11/12 14:56:25;;;;;;;22.50;16.00;;;6.10;82.70;;;4.06;97.09;96098.91;4957093;28;20122;-67
2021/11/12 14:58:57;;;;;;;24.40;18.13;;;6.20;82.80;;;4.03;96.42;96093.19;4981183;28;20042;-66
2021/11/12 15:01:26;;;;;;;33.85;22.88;;;6.10;83.00;;;4.00;97.18;96094.31;4991386;28;20038;-66
2021/11/12 15:03:53;;;;;;;29.02;21.67;;;6.10;82.90;;;4.01;97.24;96095.94;4981032;28;20037;-67